Airfield :
LOGIN :

Register | Disclaimer

   EN    FR    IT 

 










Legend :    VFR   Marginal VFR   IFR   Intensive IFR   Very Intensive IFR
Visi :
Ceiling :
>= 8 km
>= 3000ft
5 to 8 km
1000 to 3000 ft
1500m to 5 km
500 to 1000 ft
800 to 1500m
200 to 500 ft
< 800m
< 200 ft
Symbols :   Thunderstorms  Fog  Heavy snow  Heavy precipitations  Wind > 20 kt
SIGMETs :     Misc.  Thunderstorms  Icing  Turbulence  Mountain Waves  Volcanic Ashes






- Airport Elevation : 594 ft


EDBC - Cochstedt

CURRENT METAR :
  • 300220Z AUTO 09002KT 0450 0400 R07/0650N // VV/// 04/04 Q1021

EXPIRED METARs :
  • 300150Z AUTO 06002KT 0500 0300 R07/0600N // VV/// 04/04 Q1021
  • 300120Z AUTO 04002KT 0450 0350 R07/0400N // VV/// 04/04 Q1021
  • 300020Z AUTO 04001KT 0650 0450 R07/0800N // SCT004/// OVC018/// 04/04 Q1021

Expired Forecast.



MET'MAP, your aeronautical weather chart ! - Copyright ORBIFLY December 2007 - Disclaimer

ORBIFLY MET'MAP TEAM :

Programming & Development : Alexandra Zaïnal
Original concept : Baudouin d'Aumeries
Technical & hardware support : Manuel Goepfert
Assistance : Marc-Olivier Méhu




SOURCES & CREDITS :

   NOAA